Time;durP1;ratioP1;P1;durP2;ratioP2;P2;SDS_P1;SDS_P2;PMS_P1;PMS_P2;Temp;Humidity;BMP_temperature;BMP_pressure;BME280_temperature;BME280_humidity;BME280_pressure;Samples;Min_cycle;Max_cycle;Signal;HPM_P1;HPM_P2
2022/01/19 00:00:48;;;;;;;3.75;2.60;;;;;;;17.25;51.53;103354.19;5024080;28;20445;-77
2022/01/19 00:03:14;;;;;;;4.22;2.78;;;;;;;17.24;51.60;103350.66;5058701;28;20032;-77
2022/01/19 00:05:39;;;;;;;4.43;2.83;;;;;;;17.25;51.40;103346.38;5037643;28;20086;-77
2022/01/19 00:08:05;;;;;;;4.00;2.80;;;;;;;17.24;51.49;103336.78;5055135;28;20033;-77
2022/01/19 00:10:30;;;;;;;4.22;2.80;;;;;;;17.23;51.48;103328.09;5059279;28;20025;-77
2022/01/19 00:12:57;;;;;;;3.83;3.00;;;;;;;17.22;51.51;103328.94;5042560;28;20029;-77
2022/01/19 00:15:24;;;;;;;4.57;2.70;;;;;;;17.23;51.41;103322.03;5024652;28;20029;-77
2022/01/19 00:17:54;;;;;;;4.00;2.80;;;;;;;17.21;51.39;103313.28;5059224;28;20028;-77
2022/01/19 00:20:21;;;;;;;3.60;2.55;;;;;;;17.23;51.43;103316.81;5025070;28;20032;-79
2022/01/19 00:22:46;;;;;;;3.55;2.60;;;;;;;17.20;51.40;103308.91;5057793;28;20375;-78
2022/01/19 00:25:12;;;;;;;3.00;2.50;;;;;;;17.21;51.36;103313.28;5039678;28;20029;-78
2022/01/19 00:27:37;;;;;;;3.38;2.50;;;;;;;17.20;51.41;103309.81;5057630;28;20032;-79
2022/01/19 00:30:03;;;;;;;3.88;2.75;;;;;;;17.20;51.54;103307.19;5039551;28;20067;-82
2022/01/19 00:32:29;;;;;;;3.28;2.47;;;;;;;17.18;51.30;103301.06;5039681;28;20029;-78
2022/01/19 00:34:55;;;;;;;3.70;2.35;;;;;;;17.19;51.40;103288.94;5033952;28;20052;-78
2022/01/19 00:37:20;;;;;;;2.92;2.20;;;;;;;17.18;51.18;103275.03;5077155;28;20024;-78
2022/01/19 00:39:46;;;;;;;2.90;2.50;;;;;;;17.17;51.37;103255.03;5077078;28;20036;-78
2022/01/19 00:42:11;;;;;;;3.08;2.45;;;;;;;17.18;51.18;103246.41;5059595;28;20024;-76
2022/01/19 00:44:38;;;;;;;2.67;2.15;;;;;;;17.18;51.07;103232.50;5059573;28;20028;-76
2022/01/19 00:47:04;;;;;;;2.85;2.45;;;;;;;17.17;51.31;103208.22;5059075;28;20433;-76
2022/01/19 00:49:29;;;;;;;3.30;2.40;;;;;;;17.17;51.35;103199.53;5077016;28;20039;-76
2022/01/19 00:51:54;;;;;;;2.90;2.35;;;;;;;17.15;51.12;103199.47;5042165;28;20528;-79
2022/01/19 00:54:20;;;;;;;2.88;2.40;;;;;;;17.18;51.09;103209.09;5076453;28;20024;-76
2022/01/19 00:56:45;;;;;;;3.22;2.30;;;;;;;17.16;51.29;103216.88;5076631;28;20033;-78
2022/01/19 00:59:10;;;;;;;3.17;2.40;;;;;;;17.16;51.26;103208.16;5042156;28;20102;-78
2022/01/19 01:01:36;;;;;;;3.75;2.30;;;;;;;17.17;51.23;103210.81;5042550;28;20039;-78
2022/01/19 01:04:01;;;;;;;3.97;2.63;;;;;;;17.16;50.87;103221.16;5058758;28;20059;-76
2022/01/19 01:06:27;;;;;;;3.10;2.30;;;;;;;17.16;51.09;103221.16;5076827;28;20039;-78
2022/01/19 01:08:52;;;;;;;3.20;2.22;;;;;;;17.16;51.04;103219.47;5058544;28;20021;-76
2022/01/19 01:11:19;;;;;;;3.20;1.95;;;;;;;17.16;50.95;103216.88;5041876;28;20058;-76
2022/01/19 01:16:37;;;;;;;2.40;2.15;;;;;;;17.15;50.88;103196.00;5060133;28;20467;-76
2022/01/19 01:19:05;;;;;;;2.67;2.30;;;;;;;17.14;50.96;103183.84;5076122;28;20016;-76
2022/01/19 01:21:31;;;;;;;3.08;2.22;;;;;;;17.14;50.94;103182.13;5075413;28;20036;-76
2022/01/19 01:23:56;;;;;;;2.72;2.20;;;;;;;17.14;51.06;103173.44;5076089;28;20025;-76
2022/01/19 01:26:21;;;;;;;3.30;2.50;;;;;;;17.14;51.07;103165.63;5075857;28;20459;-76
2022/01/19 01:28:47;;;;;;;2.53;2.00;;;;;;;17.13;50.96;103174.25;5057931;28;20062;-76
2022/01/19 01:31:12;;;;;;;3.00;2.08;;;;;;;17.13;50.87;103169.94;5058124;28;20025;-76
2022/01/19 01:33:38;;;;;;;3.75;1.98;;;;;;;17.13;50.98;103161.25;5075499;28;20479;-77
2022/01/19 01:36:04;;;;;;;2.90;2.40;;;;;;;17.13;50.89;103146.50;5037861;28;20163;-76
2022/01/19 01:38:29;;;;;;;2.55;1.92;;;;;;;17.12;50.80;103144.75;5021221;28;20033;-77
2022/01/19 01:40:55;;;;;;;2.83;2.28;;;;;;;17.12;50.84;103138.69;5055527;28;20100;-76
2022/01/19 01:43:21;;;;;;;2.85;2.22;;;;;;;17.11;50.85;103129.97;5055674;28;20027;-76
2022/01/19 01:45:52;;;;;;;2.60;1.90;;;;;;;17.11;50.73;103116.97;5055531;28;20029;-76
2022/01/19 01:48:20;;;;;;;2.25;2.03;;;;;;;17.11;50.67;103121.28;5021853;28;20104;-76
2022/01/19 01:53:32;;;;;;;2.47;2.10;;;;;;;17.11;50.74;103123.91;5055754;28;20040;-77
2022/01/19 01:56:13;;;;;;;2.92;2.30;;;;;;;17.10;50.67;103115.22;5038039;28;20036;-76
2022/01/19 01:58:45;;;;;;;2.50;2.22;;;;;;;17.10;50.91;103111.75;5037691;28;20021;-76
2022/01/19 02:01:10;;;;;;;2.83;2.25;;;;;;;17.09;50.88;103104.75;5055266;28;20474;-76
2022/01/19 02:03:39;;;;;;;2.75;2.20;;;;;;;17.09;50.74;103100.44;5037578;28;20032;-76
2022/01/19 02:09:11;;;;;;;2.72;2.33;;;;;;;17.07;50.69;103117.72;5055474;28;20021;-76
2022/01/19 02:22:52;;;;;;;2.30;1.98;;;;;;;17.06;50.63;103072.59;5055392;28;20091;-77
2022/01/19 02:25:18;;;;;;;3.55;2.30;;;;;;;17.06;50.69;103061.34;5054890;28;20454;-77
2022/01/19 02:31:09;;;;;;;2.50;2.10;;;;;;;17.04;50.71;103037.00;5039856;28;20056;-76
2022/01/19 02:41:33;;;;;;;;;;;;;;;17.03;50.60;102994.50;5055606;28;20032;-76
2022/01/19 02:43:59;;;;;;;2.53;2.10;;;;;;;17.02;50.83;102987.53;5038729;28;19951;-76
2022/01/19 02:49:16;;;;;;;3.47;2.35;;;;;;;17.02;50.51;102964.09;5023399;28;20045;-76
2022/01/19 02:51:47;;;;;;;2.97;2.30;;;;;;;17.00;50.53;102960.59;5054316;28;20077;-76
2022/01/19 02:54:15;;;;;;;2.83;2.30;;;;;;;17.00;50.27;102950.19;5036294;28;20490;-76
2022/01/19 02:56:44;;;;;;;2.83;2.13;;;;;;;17.00;50.39;102957.97;5036243;28;20039;-76
2022/01/19 02:59:21;;;;;;;2.78;2.25;;;;;;;16.99;50.12;102952.75;5054451;28;20123;-76
2022/01/19 03:09:41;;;;;;;2.78;2.13;;;;;;;16.98;50.69;102946.66;5054548;28;20048;-76
2022/01/19 03:12:07;;;;;;;2.67;2.08;;;;;;;17.00;50.70;102946.72;5020318;28;20119;-76
2022/01/19 03:14:33;;;;;;;3.38;2.22;;;;;;;17.00;50.82;102944.09;5055056;28;20037;-78
2022/01/19 03:16:58;;;;;;;2.55;2.13;;;;;;;16.99;50.74;102948.44;5036343;28;20029;-76
2022/01/19 03:19:26;;;;;;;2.83;2.05;;;;;;;17.00;50.76;102954.50;5036142;28;20028;-76
2022/01/19 03:21:51;;;;;;;2.38;1.98;;;;;;;17.00;50.63;102957.09;5036058;28;20033;-76
2022/01/19 03:24:17;;;;;;;2.67;1.98;;;;;;;17.00;50.74;102963.19;5019895;28;20052;-76
2022/01/19 03:26:42;;;;;;;2.92;2.17;;;;;;;17.01;50.73;102969.28;5036000;28;20028;-76
2022/01/19 03:29:08;;;;;;;2.67;2.00;;;;;;;17.00;50.84;102967.50;5054174;28;20021;-76
2022/01/19 03:31:33;;;;;;;2.15;1.92;;;;;;;17.00;50.54;102968.38;5054205;28;20044;-76
2022/01/19 03:33:59;;;;;;;2.55;2.00;;;;;;;17.01;50.68;102972.75;5035718;28;20063;-76
2022/01/19 03:36:24;;;;;;;3.20;2.10;;;;;;;17.02;50.89;102971.91;5035992;28;20040;-76
2022/01/19 03:38:50;;;;;;;2.58;1.95;;;;;;;17.01;50.88;102959.75;5053953;28;20035;-76
2022/01/19 03:41:15;;;;;;;2.92;2.08;;;;;;;17.01;50.75;102958.88;5035611;28;20025;-76
2022/01/19 03:43:41;;;;;;;2.67;2.05;;;;;;;17.01;50.72;102961.50;5019119;28;20014;-76
2022/01/19 03:46:13;;;;;;;3.38;2.20;;;;;;;17.01;50.71;102959.75;5018831;28;20033;-76
2022/01/19 03:48:45;;;;;;;3.25;2.25;;;;;;;17.01;50.58;102959.75;5035749;28;20036;-77
2022/01/19 03:51:12;;;;;;;3.50;2.30;;;;;;;17.01;50.90;102957.16;5053529;28;20021;-77
2022/01/19 03:53:38;;;;;;;2.75;1.92;;;;;;;17.01;50.68;102953.69;5053447;28;20075;-76
2022/01/19 03:56:03;;;;;;;2.47;1.80;;;;;;;17.00;50.93;102951.91;5053976;28;20025;-77
2022/01/19 03:58:29;;;;;;;2.80;2.22;;;;;;;16.99;50.62;102938.03;5056159;28;20029;-77
2022/01/19 04:00:57;;;;;;;3.17;2.20;;;;;;;16.99;50.61;102939.75;5040720;28;20056;-77
2022/01/19 04:03:40;;;;;;;2.65;2.03;;;;;;;16.99;50.77;102929.34;5038090;28;20035;-78
2022/01/19 04:06:16;;;;;;;2.95;2.30;;;;;;;16.98;50.62;102931.06;5023713;28;20029;-77
2022/01/19 04:08:42;;;;;;;3.17;2.00;;;;;;;16.99;50.75;102934.56;5037668;28;20025;-76
2022/01/19 04:11:07;;;;;;;2.63;2.03;;;;;;;16.97;50.60;102921.50;5056299;28;20379;-77
2022/01/19 04:13:44;;;;;;;2.95;2.00;;;;;;;16.98;50.66;102917.16;5056228;28;20419;-77
2022/01/19 04:16:10;;;;;;;2.83;2.33;;;;;;;16.98;50.70;102920.66;5038201;28;20025;-76
2022/01/19 04:18:36;;;;;;;3.00;2.42;;;;;;;16.98;50.76;102909.38;5052608;28;20391;-77
2022/01/19 04:21:02;;;;;;;2.72;2.25;;;;;;;16.97;50.46;102905.91;5035618;28;20660;-77
2022/01/19 04:23:28;;;;;;;2.20;1.90;;;;;;;16.98;50.70;102906.78;5053177;28;20040;-77
2022/01/19 04:25:53;;;;;;;2.53;2.03;;;;;;;16.96;50.81;102892.84;5035266;28;20017;-76
2022/01/19 04:28:19;;;;;;;2.70;2.08;;;;;;;16.97;50.92;102894.63;5035509;28;20029;-76
2022/01/19 04:30:44;;;;;;;3.13;2.13;;;;;;;16.96;50.65;102892.84;5052964;28;20107;-76
2022/01/19 04:33:17;;;;;;;2.83;1.98;;;;;;;16.98;50.66;102892.03;5035124;28;20119;-76
2022/01/19 04:35:45;;;;;;;3.22;2.17;;;;;;;16.98;50.83;102884.22;5052458;28;20102;-76
2022/01/19 04:39:17;;;;;;;2.38;1.90;;;;;;;16.99;50.78;102877.34;5038591;28;20557;-76
2022/01/19 05:02:47;;;;;;;2.72;2.40;;;;;;;16.99;50.86;102856.53;5058710;28;20036;-76
2022/01/19 05:05:28;;;;;;;3.95;2.00;;;;;;;16.97;50.97;102843.47;5076474;28;20039;-76
2022/01/19 05:08:03;;;;;;;3.58;2.17;;;;;;;16.98;50.95;102853.03;5058808;28;20033;-76
2022/01/19 05:15:52;;;;;;;2.92;2.30;;;;;;;16.97;50.75;102829.59;5061592;28;20051;-76
2022/01/19 05:18:18;;;;;;;3.70;2.30;;;;;;;16.96;50.87;102822.63;5076093;28;20052;-76
2022/01/19 05:20:45;;;;;;;2.92;2.13;;;;;;;16.96;50.67;102818.31;5058013;28;20127;-77
2022/01/19 05:23:11;;;;;;;3.22;2.40;;;;;;;16.96;50.57;102810.53;5058043;28;20031;-77
2022/01/19 05:25:37;;;;;;;3.17;2.13;;;;;;;16.95;50.77;102800.94;5075979;28;20107;-77
2022/01/19 05:28:02;;;;;;;3.15;2.17;;;;;;;16.96;50.78;102799.22;5076605;28;20060;-76
2022/01/19 05:30:28;;;;;;;4.93;2.30;;;;;;;16.95;50.67;102794.88;5076169;28;20036;-76
2022/01/19 05:32:53;;;;;;;3.17;2.60;;;;;;;16.94;50.77;102786.19;5075876;28;20104;-76
2022/01/19 05:35:19;;;;;;;2.85;2.10;;;;;;;16.93;50.56;102787.03;5057990;28;20060;-76
2022/01/19 05:37:44;;;;;;;3.55;2.20;;;;;;;16.96;50.87;102786.22;5058066;28;20024;-77
2022/01/19 05:40:13;;;;;;;3.38;2.33;;;;;;;16.94;50.66;102781.00;5057933;28;20024;-77
2022/01/19 05:42:38;;;;;;;2.72;2.10;;;;;;;16.95;50.80;102777.53;5042697;28;20456;-76
2022/01/19 05:45:04;;;;;;;3.47;2.28;;;;;;;16.96;50.79;102770.59;5057686;28;20024;-76
2022/01/19 05:47:30;;;;;;;3.72;2.00;;;;;;;16.96;50.94;102763.72;5075865;28;20383;-77
2022/01/19 05:49:55;;;;;;;3.15;2.00;;;;;;;16.96;50.81;102750.72;5041038;28;20029;-76
2022/01/19 05:52:21;;;;;;;3.08;2.20;;;;;;;16.97;50.84;102747.25;5040780;28;20025;-77
2022/01/19 05:54:47;;;;;;;2.88;2.10;;;;;;;16.97;50.95;102741.16;5075504;28;20056;-77
2022/01/19 05:57:13;;;;;;;3.67;2.20;;;;;;;16.97;50.93;102734.25;5075688;28;20031;-77
2022/01/19 05:59:39;;;;;;;3.80;2.42;;;;;;;16.98;51.03;102727.31;5075787;28;20119;-77
2022/01/19 06:02:04;;;;;;;3.42;2.33;;;;;;;16.98;50.92;102722.97;5057684;28;20083;-77
2022/01/19 06:04:30;;;;;;;2.90;1.90;;;;;;;16.98;50.66;102714.31;5075244;28;20036;-76
2022/01/19 06:06:56;;;;;;;3.75;2.10;;;;;;;16.98;50.91;102703.91;5057768;28;20021;-77
2022/01/19 06:12:09;;;;;;;4.30;2.30;;;;;;;16.99;51.10;102697.88;5060238;28;20036;-76
2022/01/19 06:14:36;;;;;;;5.32;2.97;;;;;;;16.99;50.96;102696.16;5059333;28;20095;-77
2022/01/19 06:17:02;;;;;;;5.75;2.90;;;;;;;16.99;51.05;102696.16;5044131;28;20081;-76
2022/01/19 06:19:28;;;;;;;6.10;3.42;;;;;;;17.00;50.92;102691.81;5078737;28;20035;-76
2022/01/19 06:21:53;;;;;;;10.55;4.10;;;;;;;17.00;51.16;102689.22;5061131;28;20028;-75
2022/01/19 06:24:19;;;;;;;20.67;4.15;;;;;;;17.00;51.09;102684.88;5079243;28;20025;-76
2022/01/19 06:26:44;;;;;;;8.40;3.90;;;;;;;17.00;51.14;102682.28;5077523;28;20020;-75
2022/01/19 06:29:10;;;;;;;7.97;3.70;;;;;;;17.00;50.74;102679.69;5042598;28;20035;-77
2022/01/19 06:31:35;;;;;;;6.93;3.47;;;;;;;17.01;51.24;102672.78;5058788;28;20116;-76
2022/01/19 06:34:01;;;;;;;10.95;3.80;;;;;;;17.01;51.07;102676.25;5040904;28;20048;-79
2022/01/19 06:36:26;;;;;;;9.07;3.85;;;;;;;17.02;51.37;102669.31;5057940;28;20153;-79
2022/01/19 06:38:52;;;;;;;12.43;3.65;;;;;;;17.01;51.23;102667.56;5057389;28;20032;-78
2022/01/19 06:41:17;;;;;;;10.13;3.92;;;;;;;17.02;51.22;102661.53;5075082;28;20546;-79
2022/01/19 06:43:43;;;;;;;8.73;4.00;;;;;;;17.02;51.27;102645.91;5074832;28;20017;-76
2022/01/19 06:46:08;;;;;;;10.23;3.80;;;;;;;17.02;51.46;102641.56;5040030;28;20036;-76
2022/01/19 06:48:35;;;;;;;10.00;3.88;;;;;;;17.03;51.44;102639.88;5074193;28;20032;-77
2022/01/19 06:51:00;;;;;;;6.85;3.58;;;;;;;17.03;51.54;102639.88;5057178;28;20466;-77
2022/01/19 06:53:26;;;;;;;7.00;3.53;;;;;;;17.02;51.55;102644.19;5056594;28;20039;-76
2022/01/19 06:55:52;;;;;;;6.43;3.55;;;;;;;17.04;51.65;102646.81;5039762;28;20437;-77
2022/01/19 06:58:17;;;;;;;7.18;3.83;;;;;;;17.04;51.53;102641.63;5056591;28;20025;-76
2022/01/19 07:00:43;;;;;;;8.73;3.78;;;;;;;17.03;51.43;102638.16;5074368;28;20049;-79
2022/01/19 07:03:09;;;;;;;6.57;3.58;;;;;;;17.03;51.93;102630.34;5074434;28;20029;-80
2022/01/19 07:05:34;;;;;;;5.80;3.33;;;;;;;17.04;51.45;102628.63;5074540;28;20079;-77
2022/01/19 07:07:59;;;;;;;6.60;3.47;;;;;;;17.03;51.73;102627.75;5056758;28;20442;-76
2022/01/19 07:10:25;;;;;;;6.60;3.60;;;;;;;17.04;51.67;102626.88;5039564;28;20507;-76
2022/01/19 07:12:51;;;;;;;13.82;3.80;;;;;;;17.04;51.42;102620.81;5056065;28;20035;-76
2022/01/19 07:15:16;;;;;;;15.23;3.50;;;;;;;17.05;51.66;102628.66;5039839;28;20046;-77
2022/01/19 07:17:42;;;;;;;10.57;3.70;;;;;;;17.03;51.43;102622.53;5074001;28;20024;-75
2022/01/19 07:20:08;;;;;;;14.43;3.97;;;;;;;17.16;51.74;102626.28;5055411;28;20062;-77
2022/01/19 07:22:33;;;;;;;7.70;3.85;;;;;;;17.26;51.70;102623.00;5073909;28;20498;-77
2022/01/19 07:24:59;;;;;;;12.55;3.40;;;;;;;17.37;51.82;102622.34;5056076;28;20028;-77
2022/01/19 07:27:25;;;;;;;12.43;3.70;;;;;;;17.38;51.39;102611.97;5056790;28;20394;-77
2022/01/19 07:29:51;;;;;;;8.85;3.42;;;;;;;17.38;51.56;102603.31;5056209;28;20028;-77
2022/01/19 07:32:16;;;;;;;9.43;3.22;;;;;;;17.38;51.50;102611.09;5055970;28;20035;-77
2022/01/19 07:34:41;;;;;;;9.77;3.35;;;;;;;17.36;51.90;102602.38;5030630;28;20449;-78
2022/01/19 07:37:07;;;;;;;8.20;3.20;;;;;;;17.35;51.59;102598.88;5054716;28;20037;-78
2022/01/19 07:39:32;;;;;;;5.70;3.22;;;;;;;17.33;51.76;102590.16;5019587;28;20051;-77
2022/01/19 07:41:58;;;;;;;6.10;3.30;;;;;;;17.33;51.74;102600.56;5053521;28;20027;-78
2022/01/19 07:44:23;;;;;;;7.80;3.60;;;;;;;17.32;51.58;102603.19;5036058;28;20021;-77
2022/01/19 07:46:51;;;;;;;7.68;3.30;;;;;;;17.34;51.74;102596.28;5039541;28;20493;-78
2022/01/19 07:49:16;;;;;;;6.20;3.00;;;;;;;17.36;51.63;102591.97;5037720;28;20033;-78
2022/01/19 07:51:42;;;;;;;8.20;3.33;;;;;;;17.36;51.72;102586.78;5020515;28;20464;-78
2022/01/19 07:54:07;;;;;;;9.52;3.22;;;;;;;17.35;51.88;102583.28;5008235;28;20033;-78
2022/01/19 07:56:33;;;;;;;5.05;3.05;;;;;;;17.35;51.68;102585.00;5040709;28;20487;-77
2022/01/19 07:58:58;;;;;;;6.05;3.28;;;;;;;17.35;51.80;102582.41;5057923;28;20467;-79
2022/01/19 08:01:24;;;;;;;7.82;3.53;;;;;;;17.33;51.84;102571.94;5021937;28;20025;-77
2022/01/19 08:03:49;;;;;;;6.15;3.63;;;;;;;17.32;51.76;102562.41;5040361;28;20040;-78
2022/01/19 08:06:14;;;;;;;6.22;3.00;;;;;;;17.32;51.82;102554.59;5024823;28;20055;-79
2022/01/19 08:08:40;;;;;;;6.85;3.17;;;;;;;17.33;51.77;102552.88;5056501;28;20496;-77
2022/01/19 08:11:05;;;;;;;5.47;3.10;;;;;;;17.33;51.71;102545.06;5037119;28;20029;-77
2022/01/19 08:13:30;;;;;;;9.45;3.20;;;;;;;17.34;51.76;102537.28;5020128;28;20029;-78
2022/01/19 08:15:56;;;;;;;5.47;3.22;;;;;;;17.32;51.65;102541.59;5019855;28;20486;-77
2022/01/19 08:18:22;;;;;;;6.07;3.20;;;;;;;17.33;51.71;102537.25;5019748;28;20040;-78
2022/01/19 08:20:47;;;;;;;6.10;3.00;;;;;;;17.34;51.51;102533.81;5019489;28;20109;-79
2022/01/19 08:23:12;;;;;;;7.00;3.17;;;;;;;17.34;51.54;102534.69;5019158;28;20036;-76
2022/01/19 08:25:38;;;;;;;5.15;3.10;;;;;;;17.35;51.64;102523.41;5036155;28;20036;-76
2022/01/19 08:28:04;;;;;;;6.00;3.10;;;;;;;17.35;51.75;102514.75;5053184;28;20029;-76
2022/01/19 08:30:29;;;;;;;6.25;3.35;;;;;;;17.35;51.59;102509.53;5053405;28;20383;-76
2022/01/19 08:32:55;;;;;;;6.30;3.10;;;;;;;17.35;51.63;102510.41;5021333;28;20033;-76
2022/01/19 08:35:20;;;;;;;6.18;2.67;;;;;;;17.36;51.63;102517.38;5053556;28;20494;-76
2022/01/19 08:37:46;;;;;;;4.72;2.88;;;;;;;17.36;51.67;102511.31;5059405;28;20028;-76
2022/01/19 08:40:12;;;;;;;5.57;3.10;;;;;;;17.35;51.63;102520.81;5059153;28;20070;-76
2022/01/19 08:42:38;;;;;;;6.30;3.17;;;;;;;17.38;51.63;102520.03;5059794;28;20078;-76
2022/01/19 08:45:07;;;;;;;6.30;3.42;;;;;;;17.39;51.62;102512.22;5059014;28;20119;-76
2022/01/19 08:47:35;;;;;;;4.07;3.47;;;;;;;17.38;51.49;102505.28;5042677;28;20059;-76
2022/01/19 08:50:02;;;;;;;6.22;3.70;;;;;;;17.38;51.15;102501.81;5059097;28;20040;-76
2022/01/19 08:52:27;;;;;;;7.03;4.15;;;;;;;17.37;51.22;102500.03;5042291;28;20028;-76
2022/01/19 08:54:53;;;;;;;6.47;3.85;;;;;;;17.36;50.99;102491.38;5042298;28;20437;-77
2022/01/19 08:57:19;;;;;;;7.03;3.80;;;;;;;17.37;51.03;102485.28;5042380;28;20394;-76
2022/01/19 08:59:44;;;;;;;7.25;3.60;;;;;;;17.37;50.75;102482.69;5059232;28;20040;-76
2022/01/19 09:02:10;;;;;;;7.75;4.25;;;;;;;17.37;50.75;102479.22;5076659;28;20048;-76
2022/01/19 09:04:36;;;;;;;6.50;3.65;;;;;;;17.38;50.51;102476.66;5058839;28;20019;-76
2022/01/19 09:07:02;;;;;;;5.68;3.58;;;;;;;17.39;50.71;102472.31;5059040;28;20032;-76
2022/01/19 09:09:27;;;;;;;7.22;3.70;;;;;;;17.40;50.67;102458.47;5076428;28;20033;-77
2022/01/19 09:11:53;;;;;;;5.00;3.33;;;;;;;17.39;50.65;102461.91;5076371;28;20086;-76
2022/01/19 09:14:18;;;;;;;7.45;3.20;;;;;;;17.39;50.60;102457.56;5042039;28;20032;-77
2022/01/19 09:16:49;;;;;;;6.60;3.58;;;;;;;17.39;50.76;102451.50;5058348;28;20095;-77
2022/01/19 09:19:15;;;;;;;5.20;3.08;;;;;;;17.37;50.82;102448.00;5043525;28;20119;-77
2022/01/19 09:21:40;;;;;;;7.68;3.70;;;;;;;17.35;50.82;102444.50;5058288;28;20026;-76
2022/01/19 09:24:05;;;;;;;7.82;3.70;;;;;;;17.35;50.69;102440.16;5041597;28;20078;-76
2022/01/19 09:26:31;;;;;;;6.70;3.47;;;;;;;17.35;50.50;102442.75;5058904;28;20048;-76
2022/01/19 09:29:06;;;;;;;5.88;3.35;;;;;;;17.34;50.93;102443.63;5058421;28;20474;-76
2022/01/19 09:31:33;;;;;;;5.43;3.20;;;;;;;17.36;50.58;102447.13;5078677;28;20383;-81
2022/01/19 09:34:08;;;;;;;6.07;3.10;;;;;;;17.38;50.85;102447.16;5075109;28;20056;-81
2022/01/19 09:36:36;;;;;;;5.82;3.17;;;;;;;17.39;50.82;102441.09;5039449;28;20028;-81
2022/01/19 09:39:05;;;;;;;7.25;3.10;;;;;;;17.39;51.13;102441.97;5039166;28;20423;-81
2022/01/19 09:41:32;;;;;;;4.07;2.72;;;;;;;17.40;50.75;102448.06;5039618;28;20383;-81
2022/01/19 09:44:01;;;;;;;5.18;3.30;;;;;;;17.42;50.56;102461.94;5038719;28;20019;-82
2022/01/19 09:46:26;;;;;;;3.70;2.97;;;;;;;17.41;50.56;102455.88;5038998;28;20017;-81
2022/01/19 09:48:52;;;;;;;5.35;3.08;;;;;;;17.42;50.79;102459.34;5057114;28;20366;-82
2022/01/19 09:51:18;;;;;;;5.47;2.80;;;;;;;17.44;50.86;102460.25;5038875;28;20017;-81
2022/01/19 09:53:45;;;;;;;7.28;2.97;;;;;;;17.43;50.66;102456.78;5022126;28;20458;-82
2022/01/19 09:56:10;;;;;;;5.35;2.78;;;;;;;17.43;50.63;102451.56;5056511;28;20475;-81
2022/01/19 09:58:36;;;;;;;3.63;2.53;;;;;;;17.43;50.57;102448.97;5022131;28;20037;-81
2022/01/19 10:01:01;;;;;;;4.32;2.78;;;;;;;17.44;50.74;102445.53;5038716;28;20057;-81
2022/01/19 10:03:32;;;;;;;4.13;2.50;;;;;;;17.46;50.63;102451.66;5038042;28;20044;-80
2022/01/19 10:05:58;;;;;;;5.10;2.90;;;;;;;17.46;50.79;102442.94;5021956;28;20435;-81
2022/01/19 10:08:34;;;;;;;4.85;2.85;;;;;;;17.45;50.47;102442.06;5038181;28;20107;-81
2022/01/19 10:11:20;;;;;;;4.60;2.60;;;;;;;17.46;50.72;102442.94;5022473;28;20040;-82
2022/01/19 10:17:02;;;;;;;4.90;2.50;;;;;;;17.46;50.69;102436.03;5056542;28;20058;-81
2022/01/19 10:19:27;;;;;;;6.55;2.47;;;;;;;17.47;50.62;102440.38;5055418;28;20029;-80
2022/01/19 10:22:08;;;;;;;2.78;2.10;;;;;;;17.47;50.67;102431.69;5055500;28;20036;-81
2022/01/19 10:24:56;;;;;;;4.22;2.50;;;;;;;17.48;50.75;102423.91;5038579;28;20031;-81
2022/01/19 10:27:39;;;;;;;3.92;2.28;;;;;;;17.51;50.67;102427.38;5055972;28;20021;-81
2022/01/19 10:30:05;;;;;;;5.40;2.47;;;;;;;17.52;50.64;102426.56;5055965;28;20379;-81
2022/01/19 10:32:36;;;;;;;3.30;2.17;;;;;;;17.51;50.75;102428.28;5055495;28;20103;-80
2022/01/19 10:35:38;;;;;;;5.00;2.38;;;;;;;17.52;50.64;102404.00;5055101;28;20530;-81
2022/01/19 10:38:05;;;;;;;3.25;1.92;;;;;;;17.53;50.71;102384.94;5030778;28;20543;-81
2022/01/19 10:40:31;;;;;;;4.82;2.47;;;;;;;17.57;50.69;102373.72;5037744;28;20009;-82
2022/01/19 10:42:56;;;;;;;3.60;2.17;;;;;;;17.64;50.62;102364.28;5038419;28;20029;-80
2022/01/19 10:45:22;;;;;;;3.47;2.05;;;;;;;17.67;50.57;102372.13;5020457;28;20028;-80
2022/01/19 10:47:49;;;;;;;3.38;2.15;;;;;;;17.69;50.51;102362.59;5057373;28;20052;-80
2022/01/19 10:50:25;;;;;;;3.30;2.20;;;;;;;17.71;50.44;102365.25;5065859;28;20028;-80
2022/01/19 10:52:53;;;;;;;3.28;2.05;;;;;;;17.72;50.38;102370.44;5042298;28;20025;-79
2022/01/19 10:55:19;;;;;;;3.40;2.10;;;;;;;17.75;50.57;102367.03;5054625;28;20803;-80
2022/01/19 10:57:47;;;;;;;3.33;1.77;;;;;;;17.77;50.55;102361.00;5055435;28;20032;-80
2022/01/19 11:00:19;;;;;;;3.63;1.90;;;;;;;17.78;50.61;102352.31;5020888;28;20033;-78
2022/01/19 11:02:46;;;;;;;5.07;2.10;;;;;;;17.78;50.63;102347.09;5036642;28;20033;-80
2022/01/19 11:05:12;;;;;;;3.42;1.80;;;;;;;17.83;50.58;102342.00;5054636;28;20047;-77
2022/01/19 11:07:38;;;;;;;3.17;2.20;;;;;;;17.87;50.64;102351.59;5037267;28;20467;-77
2022/01/19 11:10:18;;;;;;;7.10;1.92;;;;;;;17.90;50.70;102338.63;5036430;28;20082;-80
2022/01/19 11:12:55;;;;;;;6.10;2.08;;;;;;;17.90;50.49;102320.41;5021821;28;20040;-78
2022/01/19 11:15:22;;;;;;;4.68;2.05;;;;;;;17.89;50.67;102318.63;5054158;28;20031;-80
2022/01/19 11:17:49;;;;;;;4.28;1.98;;;;;;;17.89;50.77;102305.63;5054167;28;20025;-78
2022/01/19 11:20:17;;;;;;;6.10;2.22;;;;;;;17.92;51.06;102308.28;5055337;28;20378;-79
2022/01/19 11:23:13;;;;;;;3.25;2.00;;;;;;;17.94;50.59;102303.06;5054000;28;20044;-79
2022/01/19 11:25:49;;;;;;;2.83;1.70;;;;;;;17.94;50.83;102303.94;5036024;28;20428;-79
2022/01/19 11:28:25;;;;;;;3.38;1.77;;;;;;;17.93;50.89;102309.16;5053951;28;20056;-80
2022/01/19 11:30:53;;;;;;;2.60;1.80;;;;;;;17.92;50.93;102302.16;5036241;28;20423;-79
2022/01/19 11:33:26;;;;;;;3.10;1.75;;;;;;;17.91;51.07;102292.63;5054251;28;20040;-82
2022/01/19 11:36:22;;;;;;;2.60;1.70;;;;;;;17.91;51.07;102283.06;5053745;28;20041;-81
2022/01/19 11:38:50;;;;;;;3.22;1.70;;;;;;;17.91;50.80;102277.00;5049314;28;20562;-81
2022/01/19 11:41:15;;;;;;;3.58;1.73;;;;;;;17.91;51.04;102261.38;5053842;28;20371;-81
2022/01/19 11:43:51;;;;;;;3.92;1.90;;;;;;;17.92;51.11;102263.09;5035908;28;20112;-81
2022/01/19 11:46:32;;;;;;;3.00;1.70;;;;;;;17.89;51.06;102246.59;5035835;28;20028;-80
2022/01/19 11:49:00;;;;;;;3.00;1.65;;;;;;;17.90;50.84;102247.47;5053819;28;20021;-81
2022/01/19 11:51:32;;;;;;;4.05;1.67;;;;;;;17.88;51.11;102244.00;5036476;28;20032;-81
2022/01/19 11:54:14;;;;;;;4.47;1.80;;;;;;;17.85;50.92;102242.19;5054019;28;20032;-80
2022/01/19 11:57:03;;;;;;;3.65;1.50;;;;;;;17.85;51.04;102241.31;5036777;28;20020;-82
2022/01/19 11:59:32;;;;;;;2.95;1.42;;;;;;;17.83;50.96;102233.53;5059097;28;20028;-83
2022/01/19 12:02:28;;;;;;;2.38;1.60;;;;;;;17.83;51.10;102233.53;5059331;28;20037;-82
2022/01/19 12:05:12;;;;;;;3.60;1.58;;;;;;;17.84;50.96;102229.19;5050047;28;20033;-81
2022/01/19 12:07:48;;;;;;;2.35;1.40;;;;;;;17.84;51.09;102226.56;5058819;28;20024;-82
2022/01/19 12:10:22;;;;;;;3.35;1.58;;;;;;;17.83;51.10;102215.28;5045112;28;20537;-81
2022/01/19 12:13:09;;;;;;;;;;;;;;;17.85;51.05;102216.16;5042857;28;20028;-81
2022/01/19 12:16:03;;;;;;;3.78;1.55;;;;;;;17.85;51.15;102199.66;5057106;28;19917;-81
2022/01/19 12:18:46;;;;;;;3.65;1.65;;;;;;;17.84;51.12;102188.38;5057283;28;20021;-81
2022/01/19 12:21:33;;;;;;;3.75;1.52;;;;;;;17.84;51.08;102180.56;5057228;28;20024;-82
2022/01/19 12:24:21;;;;;;;4.22;1.35;;;;;;;17.84;51.12;102171.88;5056820;28;20044;-81
2022/01/19 12:26:57;;;;;;;2.92;1.30;;;;;;;17.86;51.00;102167.56;5055898;28;20027;-81
2022/01/19 12:29:36;;;;;;;3.72;1.58;;;;;;;17.88;50.94;102168.47;5057576;28;20025;-81
2022/01/19 12:32:10;;;;;;;2.78;1.45;;;;;;;17.89;51.00;102154.56;5057491;28;20083;-81
2022/01/19 12:34:52;;;;;;;3.13;1.60;;;;;;;17.90;50.63;102156.34;5056977;28;20045;-82
2022/01/19 12:37:26;;;;;;;2.20;1.40;;;;;;;17.88;50.92;102155.44;5039134;28;20083;-81
2022/01/19 12:39:52;;;;;;;3.03;1.50;;;;;;;17.89;50.84;102158.03;5039226;28;20052;-81
2022/01/19 12:42:26;;;;;;;2.30;1.35;;;;;;;17.88;50.83;102155.44;5057287;28;20541;-81
2022/01/19 12:44:57;;;;;;;3.92;1.70;;;;;;;17.87;51.02;102151.94;5023793;28;20025;-81